Česky Dansk Deutsch English Español Suomi Français Magyar Italiano Nederlands norsk Polski Português svenska Türkçe

 

Het Weer

Rovaniemi (Finland)

15:20, 2 août 2016 (GMT)

NWNNE
WE
SWSSE
Home            
Rovaniemi Pello Sodankyla Kemi Kittila Pudasjarvi Kuusamo Hailuoto Oulu Lulea / Kallax Enontekio Gallivare Suomussalmi Ivalo Vidsel Kajaani Jokkmokk Kiruna Airport Kautokeino Skelleftea Airport Kruunupyy Viitasaari Kirkenes Lufthavn

Om een weerknop op uw website of weblog te plaatsen, copieer onderstaande code en plak die in uw pagina. In het eerste vakje staat HTML-code, in het tweede vakje UBB-code.


Add to Google

Details

Wind speed:2 bf, 6 kn, 3.1 m/s, 6.9 miles/h, 11.1 km/h
Wind direction:NE, 050°
Näkyvyys:Supérieure à 10000 m, 10 km, 32800 ft, 6.2 miles
Clouds:1 à 2/8è at 6500 ft, 1981 m
5 à 7/8è at 19000 ft, 5791 m
Het Weer:à proximité moderé averses de
Température:14°C, 57°F
Point de rosée:12°C, 54°F
Pression atmosphérique:1005 hPa, 753.8 mmHg, 29.68 inHg, 0.992 atm
Humidité relative:87.7 %
METAR:EFRO 021520Z AUTO 05006KT 9999 VCSH FEW065CB BKN190 14/12 Q1005 RESHRA

Snelkoppelingen

Actuele weersinformatie van de hele wereld. Voeg locaties toe met het plus (+) symbool. Deze snelkoppelingen kunnen worden toegevoegd aan Google.

Lid van de Technetium groep

website free tracking
StatCounter NetStat W3C Validator

14-04-2021 10:26:15
astro.technetium.be money.technetium.be phote.technetium.be tafeltennistafel.technetium.be www.ligfiets.net